createdAt,value
2018-07-20T00:01:46.039Z,6.70
2018-07-20T00:04:13.810Z,5.30
2018-07-20T00:06:41.490Z,4.97
2018-07-20T00:09:09.375Z,5.33
2018-07-20T00:11:37.100Z,5.37
2018-07-20T00:14:04.897Z,7.20
2018-07-20T00:16:32.635Z,5.60
2018-07-20T00:19:00.397Z,5.30
2018-07-20T00:21:28.143Z,5.40
2018-07-20T00:23:55.884Z,4.97
2018-07-20T00:26:23.600Z,5.17
2018-07-20T00:28:51.230Z,5.67
2018-07-20T00:31:18.976Z,9.33
2018-07-20T00:33:46.738Z,5.03
2018-07-20T00:36:14.451Z,6.13
2018-07-20T00:38:42.211Z,5.20
2018-07-20T00:41:09.973Z,5.13
2018-07-20T00:43:37.718Z,6.33
2018-07-20T00:46:05.471Z,5.40
2018-07-20T00:48:33.223Z,7.07
2018-07-20T00:51:00.947Z,5.80
2018-07-20T00:53:28.727Z,5.80
2018-07-20T00:55:56.475Z,5.17
2018-07-20T00:58:24.271Z,5.73
2018-07-20T01:00:52.091Z,6.27
2018-07-20T01:03:19.843Z,5.97
2018-07-20T01:05:47.531Z,5.67
2018-07-20T01:08:15.262Z,10.10
2018-07-20T01:10:42.955Z,6.77
2018-07-20T01:13:10.691Z,5.97
2018-07-20T01:15:38.461Z,5.73
2018-07-20T01:18:06.301Z,6.10
2018-07-20T01:20:34.063Z,5.80
2018-07-20T01:23:01.808Z,4.60
2018-07-20T01:25:29.552Z,6.17
2018-07-20T01:27:57.366Z,5.20
2018-07-20T01:30:25.102Z,5.93
2018-07-20T01:32:52.963Z,5.73
2018-07-20T01:35:20.711Z,5.50
2018-07-20T01:37:48.489Z,6.67
2018-07-20T01:40:16.237Z,6.90
2018-07-20T01:42:43.993Z,5.90
2018-07-20T01:45:11.606Z,6.37
2018-07-20T01:47:39.372Z,5.97
2018-07-20T01:50:07.168Z,7.23
2018-07-20T01:52:34.949Z,5.50
2018-07-20T01:55:02.713Z,5.63
2018-07-20T01:57:30.334Z,6.27
2018-07-20T01:59:58.072Z,5.90
2018-07-20T02:02:25.828Z,6.00
2018-07-20T02:04:53.428Z,6.60
2018-07-20T02:07:21.174Z,5.97
2018-07-20T02:09:48.891Z,7.10
2018-07-20T02:12:16.663Z,4.93
2018-07-20T02:14:44.416Z,6.93
2018-07-20T02:17:12.184Z,6.00
2018-07-20T02:19:39.889Z,6.80
2018-07-20T02:22:07.636Z,5.80
2018-07-20T02:24:35.425Z,6.97
2018-07-20T02:27:03.253Z,7.63
2018-07-20T02:29:31.085Z,7.30
2018-07-20T02:31:58.815Z,7.03
2018-07-20T02:34:26.583Z,5.90
2018-07-20T02:36:54.330Z,6.00
2018-07-20T02:39:22.107Z,10.17
2018-07-20T02:41:49.877Z,10.30
2018-07-20T02:44:17.635Z,7.40
2018-07-20T02:46:45.407Z,6.87
2018-07-20T02:49:13.182Z,6.10
2018-07-20T02:51:40.972Z,6.50
2018-07-20T02:54:08.791Z,8.90
2018-07-20T02:56:36.563Z,6.00
2018-07-20T02:59:04.347Z,6.20
2018-07-20T03:01:32.147Z,10.47
2018-07-20T03:03:59.903Z,6.20
2018-07-20T03:06:27.807Z,5.93
2018-07-20T03:08:55.496Z,5.90
2018-07-20T03:11:23.290Z,6.23
2018-07-20T03:13:51.101Z,6.57
2018-07-20T03:16:19.009Z,6.13
2018-07-20T03:18:46.815Z,6.30
2018-07-20T03:21:14.605Z,6.93
2018-07-20T03:23:42.403Z,6.50
2018-07-20T03:26:10.132Z,19.33
2018-07-20T03:28:37.934Z,6.20
2018-07-20T03:31:05.771Z,7.37
2018-07-20T03:33:33.566Z,8.07
2018-07-20T03:36:01.356Z,7.77
2018-07-20T03:38:29.163Z,7.53
2018-07-20T03:40:56.895Z,6.20
2018-07-20T03:43:24.521Z,9.30
2018-07-20T03:45:52.312Z,5.67
2018-07-20T03:48:20.099Z,9.83
2018-07-20T03:50:47.717Z,5.80
2018-07-20T03:53:15.508Z,6.57
2018-07-20T03:55:43.271Z,6.10
2018-07-20T03:58:11.067Z,5.63
2018-07-20T04:00:38.854Z,6.40
2018-07-20T04:03:06.732Z,9.03
2018-07-20T04:05:34.472Z,5.97
2018-07-20T04:08:02.235Z,8.00
2018-07-20T04:10:29.981Z,6.47
2018-07-20T04:12:57.760Z,8.17
2018-07-20T04:15:25.498Z,7.63
2018-07-20T04:17:53.280Z,9.30
2018-07-20T04:20:21.022Z,7.90
2018-07-20T04:22:48.831Z,16.60
2018-07-20T04:25:16.578Z,5.90
2018-07-20T04:27:44.411Z,9.20
2018-07-20T04:30:13.963Z,8.30
2018-07-20T04:32:41.842Z,7.90
2018-07-20T04:35:10.315Z,8.93
2018-07-20T04:37:38.140Z,6.60
2018-07-20T04:40:06.348Z,6.83
2018-07-20T04:42:34.565Z,8.13
2018-07-20T04:45:02.372Z,13.53
2018-07-20T04:47:30.124Z,8.40
2018-07-20T04:49:57.904Z,7.80
2018-07-20T04:52:25.553Z,14.77
2018-07-20T04:54:53.183Z,5.33
2018-07-20T04:57:20.940Z,13.37
2018-07-20T04:59:48.692Z,10.23
2018-07-20T05:02:16.536Z,8.07
2018-07-20T05:04:44.280Z,8.90
2018-07-20T05:07:11.902Z,8.10
2018-07-20T05:09:39.668Z,8.80
2018-07-20T05:12:07.427Z,11.17
2018-07-20T05:14:35.198Z,10.80
2018-07-20T05:17:02.971Z,14.03
2018-07-20T05:19:30.790Z,12.53
2018-07-20T05:21:58.521Z,12.37
2018-07-20T05:24:26.146Z,11.47
2018-07-20T05:26:53.990Z,12.73
2018-07-20T05:29:22.262Z,10.37
2018-07-20T05:31:50.082Z,11.07
2018-07-20T05:34:17.953Z,12.00
2018-07-20T05:36:45.751Z,12.60
2018-07-20T05:39:13.567Z,9.70
2018-07-20T05:41:41.497Z,10.40
2018-07-20T05:44:09.301Z,11.90
2018-07-20T05:46:37.159Z,10.00
2018-07-20T05:49:04.959Z,9.90
2018-07-20T05:51:32.751Z,10.67
2018-07-20T05:54:00.599Z,12.73
2018-07-20T05:56:28.343Z,10.40
2018-07-20T05:58:56.079Z,10.10
2018-07-20T06:01:23.873Z,9.70
2018-07-20T06:03:51.612Z,11.00
2018-07-20T06:06:19.355Z,17.77
2018-07-20T06:08:47.110Z,12.40
2018-07-20T06:11:14.904Z,11.07
2018-07-20T06:13:42.691Z,9.83
2018-07-20T06:16:10.460Z,12.47
2018-07-20T06:18:38.246Z,11.80
2018-07-20T06:21:06.351Z,14.97
2018-07-20T06:23:34.212Z,12.40
2018-07-20T06:26:01.992Z,12.57
2018-07-20T06:28:29.988Z,13.87
2018-07-20T06:30:57.739Z,12.87
2018-07-20T06:33:25.496Z,16.87
2018-07-20T06:35:53.251Z,15.53
2018-07-20T06:38:21.035Z,12.17
2018-07-20T06:40:48.764Z,13.93
2018-07-20T06:43:16.545Z,11.10
2018-07-20T06:45:44.311Z,11.53
2018-07-20T06:48:12.067Z,13.00
2018-07-20T06:50:39.819Z,11.03
2018-07-20T06:53:07.648Z,15.17
2018-07-20T06:55:35.384Z,21.47
2018-07-20T06:58:03.176Z,12.00
2018-07-20T07:00:30.955Z,13.50
2018-07-20T07:02:58.609Z,11.80
2018-07-20T07:05:26.376Z,12.33
2018-07-20T07:07:54.147Z,12.47
2018-07-20T07:10:21.771Z,13.73
2018-07-20T07:12:49.533Z,12.40
2018-07-20T07:15:17.398Z,17.23
2018-07-20T07:17:44.994Z,16.37
2018-07-20T07:20:12.699Z,12.23
2018-07-20T07:22:40.467Z,11.30
2018-07-20T07:25:08.188Z,14.30
2018-07-20T07:27:35.951Z,13.10
2018-07-20T07:30:04.202Z,15.10
2018-07-20T07:32:31.943Z,12.10
2018-07-20T07:34:59.711Z,12.47
2018-07-20T07:37:27.495Z,11.47
2018-07-20T07:39:55.368Z,14.07
2018-07-20T07:42:23.123Z,11.97
2018-07-20T07:44:50.882Z,13.50
2018-07-20T07:47:18.592Z,14.40
2018-07-20T07:49:46.340Z,14.30
2018-07-20T07:52:14.093Z,18.50
2018-07-20T07:54:41.857Z,14.77
2018-07-20T07:57:10.134Z,13.43
2018-07-20T07:59:37.935Z,12.17
2018-07-20T08:02:05.556Z,15.47
2018-07-20T08:04:33.425Z,13.23
2018-07-20T08:07:01.112Z,11.60
2018-07-20T08:09:29.226Z,17.87
2018-07-20T08:11:56.986Z,14.30
2018-07-20T08:14:24.760Z,18.47
2018-07-20T08:16:52.564Z,14.90
2018-07-20T08:19:20.295Z,15.20
2018-07-20T08:21:48.088Z,18.67
2018-07-20T08:24:15.856Z,17.40
2018-07-20T08:26:43.608Z,16.30
2018-07-20T08:29:11.398Z,18.63
2018-07-20T08:31:39.166Z,15.43
2018-07-20T08:34:06.886Z,16.33
2018-07-20T08:36:34.584Z,18.33
2018-07-20T08:39:03.095Z,17.87
2018-07-20T08:41:30.808Z,14.70
2018-07-20T08:43:58.543Z,15.33
2018-07-20T08:46:26.312Z,12.77
2018-07-20T08:48:54.095Z,14.67
2018-07-20T08:51:21.794Z,15.23
2018-07-20T08:53:49.516Z,14.13
2018-07-20T08:56:17.247Z,16.17
2018-07-20T08:58:44.850Z,22.83
2018-07-20T09:01:12.646Z,12.00
2018-07-20T09:03:40.487Z,14.40
2018-07-20T09:06:08.039Z,14.57
2018-07-20T09:08:35.805Z,17.80
2018-07-20T09:11:03.607Z,16.70
2018-07-20T09:13:31.478Z,19.67
2018-07-20T09:15:59.235Z,14.30
2018-07-20T09:18:27.014Z,18.30
2018-07-20T09:20:54.798Z,17.30
2018-07-20T09:23:22.560Z,18.97
2018-07-20T09:25:50.315Z,13.83
2018-07-20T09:28:17.970Z,18.27
2018-07-20T09:30:45.767Z,12.17
2018-07-20T09:33:13.565Z,15.30
2018-07-20T09:35:41.372Z,16.00
2018-07-20T09:38:09.122Z,13.23
2018-07-20T09:40:37.129Z,17.30
2018-07-20T09:43:04.986Z,17.17
2018-07-20T09:45:32.791Z,14.57
2018-07-20T09:48:00.555Z,17.70
2018-07-20T09:50:28.349Z,14.53
2018-07-20T09:52:55.998Z,14.10
2018-07-20T09:55:23.847Z,16.50
2018-07-20T09:57:51.607Z,15.87
2018-07-20T10:00:23.884Z,23.00
2018-07-20T10:02:51.708Z,15.37
2018-07-20T10:05:19.580Z,12.77
2018-07-20T10:07:47.319Z,11.10
2018-07-20T10:10:14.967Z,9.60
2018-07-20T10:12:42.813Z,13.47
2018-07-20T10:15:10.512Z,13.03
2018-07-20T10:17:38.144Z,12.60
2018-07-20T10:20:05.905Z,12.73
2018-07-20T10:22:33.657Z,9.70
2018-07-20T10:25:01.356Z,10.90
2018-07-20T10:27:29.065Z,8.40
2018-07-20T10:29:56.758Z,11.90
2018-07-20T10:32:24.446Z,9.50
2018-07-20T10:34:52.141Z,9.73
2018-07-20T10:37:19.852Z,7.80
2018-07-20T10:39:47.527Z,9.70
2018-07-20T10:42:15.318Z,9.53
2018-07-20T10:44:42.881Z,10.07
2018-07-20T10:47:10.471Z,7.83
2018-07-20T10:49:38.156Z,10.00
2018-07-20T10:52:06.427Z,6.00
2018-07-20T10:54:34.138Z,7.80
2018-07-20T10:57:01.727Z,8.10
2018-07-20T10:59:29.479Z,8.00
2018-07-20T11:01:57.182Z,9.20
2018-07-20T11:04:24.897Z,8.00
2018-07-20T11:06:52.591Z,6.80
2018-07-20T11:09:20.280Z,8.97
2018-07-20T11:11:47.991Z,11.77
2018-07-20T11:14:15.825Z,17.33
2018-07-20T11:16:43.626Z,7.97
2018-07-20T11:19:11.356Z,7.57
2018-07-20T11:21:39.731Z,6.73
2018-07-20T11:24:07.428Z,5.20
2018-07-20T11:26:35.226Z,5.40
2018-07-20T11:29:03.094Z,6.43
2018-07-20T11:31:30.850Z,5.17
2018-07-20T11:33:58.559Z,10.37
2018-07-20T11:36:26.362Z,3.97
2018-07-20T11:38:54.116Z,4.73
2018-07-20T11:41:21.990Z,5.13
2018-07-20T11:43:49.775Z,6.97
2018-07-20T11:46:18.520Z,3.53
2018-07-20T11:48:46.129Z,4.00
2018-07-20T11:51:13.943Z,6.07
2018-07-20T11:53:41.602Z,6.13
2018-07-20T11:56:09.357Z,5.73
2018-07-20T11:58:37.187Z,7.10
2018-07-20T12:01:04.966Z,4.93
2018-07-20T12:03:32.796Z,6.40
2018-07-20T12:06:00.571Z,7.73
2018-07-20T12:08:28.347Z,3.40
2018-07-20T12:10:56.095Z,8.93
2018-07-20T12:13:23.931Z,3.73
2018-07-20T12:15:51.562Z,4.60
2018-07-20T12:18:19.351Z,6.47
2018-07-20T12:20:47.136Z,6.70
2018-07-20T12:23:14.772Z,5.77
2018-07-20T12:25:42.689Z,8.33
2018-07-20T12:28:10.511Z,5.37
2018-07-20T12:30:38.235Z,5.73
2018-07-20T12:33:06.139Z,6.57
2018-07-20T12:35:33.908Z,6.07
2018-07-20T12:38:01.725Z,5.57
2018-07-20T12:40:29.554Z,5.40
2018-07-20T12:42:57.448Z,5.50
2018-07-20T12:45:25.316Z,7.93
2018-07-20T12:47:53.071Z,8.50
2018-07-20T12:50:20.920Z,6.43
2018-07-20T12:52:48.608Z,7.77
2018-07-20T12:55:16.381Z,8.53
2018-07-20T12:57:44.175Z,6.83
2018-07-20T13:00:12.088Z,7.20
2018-07-20T13:02:39.889Z,8.63
2018-07-20T13:05:07.720Z,6.83
2018-07-20T13:07:35.489Z,7.30
2018-07-20T13:10:03.627Z,6.40
2018-07-20T13:12:31.394Z,6.60
2018-07-20T13:14:59.086Z,6.80
2018-07-20T13:17:26.742Z,6.27
2018-07-20T13:19:54.414Z,6.93
2018-07-20T13:22:22.238Z,8.13
2018-07-20T13:24:50.037Z,6.30
2018-07-20T13:27:18.704Z,5.90
2018-07-20T13:29:46.483Z,6.13
2018-07-20T13:32:14.163Z,5.67
2018-07-20T13:34:41.946Z,6.07
2018-07-20T13:37:09.727Z,7.80
2018-07-20T13:39:37.524Z,6.20
2018-07-20T13:42:05.228Z,7.30
2018-07-20T13:44:32.992Z,5.97
2018-07-20T13:47:00.819Z,9.33
2018-07-20T13:49:28.449Z,6.80
2018-07-20T13:51:56.279Z,6.50
2018-07-20T13:54:24.010Z,6.10
2018-07-20T13:56:51.847Z,5.70
2018-07-20T13:59:19.668Z,15.60
2018-07-20T14:01:47.513Z,5.77
2018-07-20T14:04:15.179Z,9.23
2018-07-20T14:06:43.035Z,7.77
2018-07-20T14:09:11.459Z,8.67
2018-07-20T14:11:39.339Z,13.00
2018-07-20T14:14:07.792Z,10.80
2018-07-20T14:16:35.586Z,10.30
2018-07-20T14:19:03.400Z,7.70
2018-07-20T14:21:31.159Z,6.40
2018-07-20T14:23:59.212Z,6.67
2018-07-20T14:26:27.048Z,9.83
2018-07-20T14:28:54.804Z,16.33
2018-07-20T14:31:22.572Z,6.20
2018-07-20T14:33:50.355Z,7.37
2018-07-20T14:36:18.165Z,5.90
2018-07-20T14:38:46.355Z,6.30
2018-07-20T14:41:13.966Z,6.00
2018-07-20T14:43:41.742Z,8.50
2018-07-20T14:46:09.544Z,7.90
2018-07-20T14:48:37.304Z,7.83
2018-07-20T14:51:04.968Z,7.40
2018-07-20T14:53:32.630Z,6.87
2018-07-20T14:56:00.247Z,5.87
2018-07-20T14:58:28.073Z,7.50
2018-07-20T15:00:55.828Z,7.60
2018-07-20T15:03:23.443Z,6.50
2018-07-20T15:05:51.209Z,11.97
2018-07-20T15:08:18.956Z,6.70
2018-07-20T15:10:47.408Z,8.03
2018-07-20T15:13:15.207Z,9.73
2018-07-20T15:15:42.947Z,6.90
2018-07-20T15:18:10.680Z,5.40
2018-07-20T15:20:38.343Z,6.23
2018-07-20T15:23:05.979Z,6.90
2018-07-20T15:25:33.780Z,6.90
2018-07-20T15:28:01.526Z,6.10
2018-07-20T15:30:29.188Z,7.53
2018-07-20T15:32:56.979Z,5.93
2018-07-20T15:35:24.769Z,7.13
2018-07-20T15:37:52.520Z,6.10
2018-07-20T15:40:20.334Z,9.53
2018-07-20T15:42:48.108Z,5.80
2018-07-20T15:45:15.876Z,6.07
2018-07-20T15:47:43.664Z,7.30
2018-07-20T15:50:11.527Z,7.67
2018-07-20T15:55:07.273Z,5.60
2018-07-20T15:57:35.097Z,4.93
2018-07-20T16:00:03.025Z,7.93
2018-07-20T16:02:30.806Z,5.73
2018-07-20T16:04:58.566Z,6.37
2018-07-20T16:07:27.095Z,6.40
2018-07-20T16:09:54.742Z,5.80
2018-07-20T16:12:22.540Z,8.83
2018-07-20T16:14:50.170Z,9.70
2018-07-20T16:17:17.970Z,5.90
2018-07-20T16:19:45.600Z,5.20
2018-07-20T16:22:13.386Z,7.60
2018-07-20T16:24:41.146Z,5.70
2018-07-20T16:27:08.918Z,7.43
2018-07-20T16:29:36.666Z,6.27
2018-07-20T16:32:04.458Z,6.93
2018-07-20T16:34:32.288Z,5.57
2018-07-20T16:37:00.032Z,5.80
2018-07-20T16:39:27.792Z,6.60
2018-07-20T16:41:55.606Z,6.10
2018-07-20T16:44:23.467Z,7.50
2018-07-20T16:46:51.271Z,7.43
2018-07-20T16:49:19.017Z,6.73
2018-07-20T16:51:46.779Z,6.20
2018-07-20T16:54:14.543Z,6.00
2018-07-20T16:56:42.289Z,5.40
2018-07-20T16:59:10.084Z,5.40
2018-07-20T17:01:37.808Z,5.90
2018-07-20T17:04:05.547Z,6.20
2018-07-20T17:06:33.378Z,10.80
2018-07-20T17:09:01.141Z,8.27
2018-07-20T17:11:28.975Z,5.70
2018-07-20T17:13:56.770Z,6.83
2018-07-20T17:16:24.751Z,8.33
2018-07-20T17:18:52.499Z,5.13
2018-07-20T17:21:20.279Z,11.27
2018-07-20T17:23:48.023Z,6.10
2018-07-20T17:26:15.781Z,7.53
2018-07-20T17:28:43.538Z,8.50
2018-07-20T17:31:11.163Z,5.93
2018-07-20T17:33:38.954Z,6.53
2018-07-20T17:36:06.784Z,5.07
2018-07-20T17:38:34.707Z,5.17
2018-07-20T17:41:02.664Z,6.13
2018-07-20T17:43:30.443Z,7.13
2018-07-20T17:45:58.193Z,5.53
2018-07-20T17:48:25.800Z,6.00
2018-07-20T17:50:53.514Z,5.10
2018-07-20T17:53:21.287Z,4.27
2018-07-20T17:55:49.015Z,5.30
2018-07-20T17:58:16.935Z,7.00
2018-07-20T18:00:44.516Z,5.67
2018-07-20T18:03:12.267Z,4.67
2018-07-20T18:05:39.952Z,5.67
2018-07-20T18:08:07.674Z,5.10
2018-07-20T18:10:35.500Z,4.70
2018-07-20T18:13:03.275Z,4.30
2018-07-20T18:15:31.019Z,6.03
2018-07-20T18:17:59.437Z,5.77
2018-07-20T18:20:27.171Z,9.97
2018-07-20T18:22:54.891Z,12.13
2018-07-20T18:25:22.452Z,8.50
2018-07-20T18:27:50.232Z,5.77
2018-07-20T18:30:17.966Z,7.10
2018-07-20T18:32:45.550Z,6.97
2018-07-20T18:35:13.360Z,6.10
2018-07-20T18:37:41.146Z,7.23
2018-07-20T18:40:08.879Z,6.90
2018-07-20T18:42:36.563Z,15.23
2018-07-20T18:45:05.382Z,5.87
2018-07-20T18:47:33.120Z,8.07
2018-07-20T18:50:00.859Z,8.53
2018-07-20T18:52:28.620Z,7.10
2018-07-20T18:54:56.380Z,7.20
2018-07-20T18:57:24.104Z,7.80
2018-07-20T18:59:51.757Z,32.50
2018-07-20T19:02:19.447Z,8.83
2018-07-20T19:04:47.199Z,12.43
2018-07-20T19:07:14.806Z,11.90
2018-07-20T19:09:42.534Z,15.33
2018-07-20T19:12:10.327Z,18.97
2018-07-20T19:14:38.130Z,16.57
2018-07-20T19:17:06.114Z,14.60
2018-07-20T19:19:33.803Z,13.57
2018-07-20T19:22:01.542Z,16.87
2018-07-20T19:24:29.143Z,11.57
2018-07-20T19:26:56.919Z,12.13
2018-07-20T19:29:24.636Z,12.17
2018-07-20T19:31:52.355Z,11.83
2018-07-20T19:34:20.148Z,19.13
2018-07-20T19:36:47.886Z,16.53
2018-07-20T19:39:15.579Z,15.70
2018-07-20T19:41:43.171Z,21.73
2018-07-20T19:44:10.892Z,17.27
2018-07-20T19:46:38.664Z,23.40
2018-07-20T19:49:06.288Z,15.63
2018-07-20T19:51:34.050Z,15.53
2018-07-20T19:54:01.879Z,10.93
2018-07-20T19:56:29.664Z,15.10
2018-07-20T19:58:57.449Z,7.80
2018-07-20T20:01:25.127Z,11.17
2018-07-20T20:03:52.905Z,10.30
2018-07-20T20:06:20.655Z,6.67
2018-07-20T20:08:48.400Z,6.60
2018-07-20T20:11:16.096Z,7.20
2018-07-20T20:13:43.819Z,5.40
2018-07-20T20:16:11.511Z,4.67
2018-07-20T20:18:39.246Z,6.90
2018-07-20T20:21:06.979Z,6.37
2018-07-20T20:23:34.616Z,9.00
2018-07-20T20:26:02.427Z,5.57
2018-07-20T20:28:30.143Z,7.30
2018-07-20T20:30:57.848Z,6.80
2018-07-20T20:33:25.573Z,5.37
2018-07-20T20:35:53.260Z,7.73
2018-07-20T20:38:21.027Z,7.23
2018-07-20T20:40:48.761Z,7.30
2018-07-20T20:43:16.478Z,7.50
2018-07-20T20:45:44.185Z,4.70
2018-07-20T20:48:11.978Z,8.70
2018-07-20T20:50:39.542Z,4.73
2018-07-20T20:53:07.138Z,5.70
2018-07-20T20:55:34.883Z,4.43
2018-07-20T20:58:02.559Z,8.40
2018-07-20T21:00:30.284Z,6.40
2018-07-20T21:02:57.894Z,5.87
2018-07-20T21:05:25.693Z,6.60
2018-07-20T21:07:53.413Z,5.83
2018-07-20T21:10:21.293Z,4.23
2018-07-20T21:12:49.057Z,7.90
2018-07-20T21:15:16.897Z,6.80
2018-07-20T21:17:44.647Z,4.50
2018-07-20T21:20:12.448Z,6.17
2018-07-20T21:22:40.212Z,4.93
2018-07-20T21:25:08.043Z,5.87
2018-07-20T21:27:35.682Z,4.43
2018-07-20T21:30:04.134Z,5.07
2018-07-20T21:32:31.955Z,4.73
2018-07-20T21:34:59.755Z,6.27
2018-07-20T21:37:27.548Z,6.10
2018-07-20T21:39:55.382Z,5.57
2018-07-20T21:42:23.220Z,9.77
2018-07-20T21:44:50.986Z,4.90
2018-07-20T21:47:18.715Z,5.43
2018-07-20T21:49:46.345Z,4.77
2018-07-20T21:52:14.142Z,7.10
2018-07-20T21:54:41.760Z,3.90
2018-07-20T21:57:09.530Z,5.60
2018-07-20T21:59:37.303Z,5.33
2018-07-20T22:02:05.104Z,5.20
2018-07-20T22:04:32.788Z,5.07
2018-07-20T22:07:00.548Z,4.33
2018-07-20T22:09:28.291Z,4.80
2018-07-20T22:11:56.680Z,7.67
2018-07-20T22:14:24.458Z,4.03
2018-07-20T22:16:52.252Z,5.40
2018-07-20T22:19:19.964Z,7.83
2018-07-20T22:21:47.699Z,6.70
2018-07-20T22:24:15.638Z,7.70
2018-07-20T22:26:43.432Z,5.27
2018-07-20T22:29:11.206Z,5.63
2018-07-20T22:31:38.975Z,8.40
2018-07-20T22:34:06.728Z,5.00
2018-07-20T22:36:34.507Z,7.60
2018-07-20T22:39:02.564Z,6.83
2018-07-20T22:41:30.319Z,5.40
2018-07-20T22:43:58.121Z,5.60
2018-07-20T22:46:25.730Z,6.50
2018-07-20T22:48:53.492Z,5.47
2018-07-20T22:51:21.191Z,5.57
2018-07-20T22:53:48.951Z,4.60
2018-07-20T22:56:16.604Z,6.60
2018-07-20T22:58:44.368Z,4.40
2018-07-20T23:01:12.089Z,4.30
2018-07-20T23:03:39.922Z,5.90
2018-07-20T23:06:07.708Z,5.30
2018-07-20T23:08:35.362Z,4.90
2018-07-20T23:11:03.067Z,5.07
2018-07-20T23:13:30.922Z,5.03
2018-07-20T23:15:58.737Z,7.17
2018-07-20T23:18:26.549Z,6.00
2018-07-20T23:20:54.320Z,5.80
2018-07-20T23:23:22.036Z,6.23
2018-07-20T23:25:49.816Z,7.10
2018-07-20T23:28:17.414Z,5.67
2018-07-20T23:30:45.163Z,5.20
2018-07-20T23:33:12.911Z,8.47
2018-07-20T23:35:40.550Z,5.47
2018-07-20T23:38:09.242Z,4.77
2018-07-20T23:40:37.003Z,6.63
2018-07-20T23:43:05.036Z,4.90
2018-07-20T23:45:32.794Z,6.47
2018-07-20T23:48:00.555Z,6.60
2018-07-20T23:50:28.300Z,8.10
2018-07-20T23:52:55.946Z,4.83
2018-07-20T23:55:23.616Z,5.33
2018-07-20T23:57:51.357Z,6.33
